Current | Forecast
Updated: 6:00 PM +08 on April 20, 2018
Observed at Labuan, Malaysia
Temperature 29°C
Humidity 84%
Dew Point 26°C
Wind North at 11 km/h
Pressure 1007 hPa (Steady)
Conditions Mostly Cloudy
Visibility 10.0 kilometers
UV 0 out of 16
Clouds Scattered Clouds (SCT) : 304 m
Scattered Clouds (SCT) : 4267 m
Mostly Cloudy (BKN) : 8839 m
Yesterday's Maximum 29°C
Yesterday's Minimum 27°C approx.
Yesterday's Cooling Degree Days 17 approx.
Sunrise6:07 AM +08
Sunset6:22 PM +08
Moon Rise9:45 AM +08
Moon Set10:28 PM +08
Moon PhaseMoon Phase
Waxing Crescent
Raw METARMETAR WBKL 201000Z 01006KT 330V050 9999 SCT010 SCT140 BKN290 29/26 Q1007


Monday
. High: 89° F.
Tuesday
. High: 89° F.
Wednesday
. High: 89° F.
Thursday
. High: 89° F.
Friday
. High: 91° F.
Saturday
. High: 89° F.
Sunday
. High: 89° F.
Monday
. High: 91° F.

Units: English | Metric

Find the Weather for any City, State or Zipcode, or Country:

U.S. State List | Severe Weather | Tropical Storms | Ski Conditions
United States | Canada | Central America | South America | Asia | Europe | Australia | Africa | Islands

Weather Underground

© Copyright 2018
The Weather Company, LLC